createdAt,value
2022-09-26T00:01:22.994Z,2.90
2022-09-26T00:03:52.777Z,2.72
2022-09-26T00:06:20.738Z,2.65
2022-09-26T00:08:48.608Z,2.80
2022-09-26T00:11:18.666Z,2.70
2022-09-26T00:13:45.257Z,2.55
2022-09-26T00:16:13.387Z,2.08
2022-09-26T00:18:40.344Z,2.25
2022-09-26T00:21:09.698Z,2.30
2022-09-26T00:23:36.703Z,2.60
2022-09-26T00:26:04.147Z,2.45
2022-09-26T00:28:30.815Z,2.47
2022-09-26T00:30:57.820Z,2.30
2022-09-26T00:33:24.322Z,2.40
2022-09-26T00:35:55.062Z,2.50
2022-09-26T00:38:22.383Z,2.55
2022-09-26T00:40:49.846Z,2.63
2022-09-26T00:43:33.681Z,3.08
2022-09-26T00:46:34.739Z,2.80
2022-09-26T00:49:20.178Z,3.42
2022-09-26T00:51:52.871Z,2.90
2022-09-26T00:54:20.050Z,2.60
2022-09-26T00:56:50.622Z,3.67
2022-09-26T00:59:27.644Z,3.20
2022-09-26T01:01:57.977Z,3.78
2022-09-26T01:04:28.281Z,3.05
2022-09-26T01:07:01.372Z,2.90
2022-09-26T01:09:29.185Z,3.47
2022-09-26T01:11:56.780Z,3.30
2022-09-26T01:14:24.794Z,2.80
2022-09-26T01:16:51.750Z,3.50
2022-09-26T01:19:49.339Z,3.30
2022-09-26T01:22:32.380Z,3.92
2022-09-26T01:25:43.539Z,2.88
2022-09-26T01:28:25.143Z,3.08
2022-09-26T01:31:12.094Z,2.80
2022-09-26T01:34:09.587Z,3.53
2022-09-26T01:36:50.625Z,3.10
2022-09-26T01:39:52.420Z,2.88
2022-09-26T01:42:45.663Z,2.90
2022-09-26T01:45:21.888Z,3.20
2022-09-26T01:48:16.868Z,3.00
2022-09-26T01:51:10.826Z,2.97
2022-09-26T01:53:46.788Z,2.70
2022-09-26T01:56:21.184Z,3.00
2022-09-26T01:58:57.295Z,2.95
2022-09-26T02:01:27.503Z,2.90
2022-09-26T02:04:01.151Z,2.70
2022-09-26T02:06:34.243Z,2.80
2022-09-26T02:09:12.131Z,2.85
2022-09-26T02:11:43.831Z,3.08
2022-09-26T02:14:16.206Z,3.13
2022-09-26T02:16:51.011Z,3.13
2022-09-26T02:19:59.923Z,3.00
2022-09-26T02:22:29.547Z,3.38
2022-09-26T02:24:55.989Z,3.33
2022-09-26T02:27:22.642Z,4.22
2022-09-26T02:29:49.019Z,3.50
2022-09-26T02:32:20.529Z,3.33
2022-09-26T02:34:48.471Z,3.33
2022-09-26T02:37:16.372Z,3.13
2022-09-26T02:39:45.457Z,4.07
2022-09-26T02:42:25.304Z,3.63
2022-09-26T02:45:29.638Z,3.63
2022-09-26T02:48:11.935Z,3.88
2022-09-26T02:50:53.503Z,3.85
2022-09-26T02:53:42.088Z,3.45
2022-09-26T02:56:33.328Z,3.83
2022-09-26T02:59:22.407Z,3.55
2022-09-26T03:02:05.899Z,3.30
2022-09-26T03:04:50.603Z,3.47
2022-09-26T03:07:27.920Z,3.50
2022-09-26T03:09:57.255Z,3.92
2022-09-26T03:12:26.283Z,3.08
2022-09-26T03:14:57.997Z,3.38
2022-09-26T03:17:26.924Z,4.32
2022-09-26T03:20:05.318Z,3.30
2022-09-26T03:22:32.108Z,3.38
2022-09-26T03:24:59.798Z,3.30
2022-09-26T03:27:27.147Z,4.25
2022-09-26T03:29:54.081Z,4.10
2022-09-26T03:32:20.489Z,4.00
2022-09-26T03:34:47.017Z,3.58
2022-09-26T03:37:13.687Z,3.58
2022-09-26T03:39:40.065Z,3.72
2022-09-26T03:42:06.640Z,3.80
2022-09-26T03:44:33.013Z,4.15
2022-09-26T03:46:59.629Z,4.43
2022-09-26T03:49:26.099Z,4.13
2022-09-26T03:51:52.489Z,3.72
2022-09-26T03:54:19.006Z,4.25
2022-09-26T03:56:45.457Z,3.88
2022-09-26T03:59:12.197Z,4.47
2022-09-26T04:01:38.870Z,4.38
2022-09-26T04:04:05.399Z,4.45
2022-09-26T04:06:31.738Z,4.30
2022-09-26T04:08:58.139Z,4.63
2022-09-26T04:11:24.921Z,4.00
2022-09-26T04:13:53.994Z,4.22
2022-09-26T04:16:22.650Z,4.55
2022-09-26T04:18:49.778Z,4.22
2022-09-26T04:21:17.416Z,4.38
2022-09-26T04:23:44.488Z,4.40
2022-09-26T04:26:17.482Z,3.90
2022-09-26T04:28:50.919Z,3.80
2022-09-26T04:31:17.957Z,4.50
2022-09-26T04:33:45.066Z,4.50
2022-09-26T04:36:13.629Z,3.90
2022-09-26T04:38:41.080Z,5.05
2022-09-26T04:41:10.638Z,4.45
2022-09-26T04:43:37.683Z,4.70
2022-09-26T04:46:09.591Z,4.82
2022-09-26T04:48:36.489Z,4.85
2022-09-26T04:51:07.948Z,4.45
2022-09-26T04:53:35.485Z,4.40
2022-09-26T04:56:02.597Z,4.82
2022-09-26T04:58:29.467Z,4.93
2022-09-26T05:00:55.882Z,4.57
2022-09-26T05:03:22.609Z,5.30
2022-09-26T05:05:49.989Z,5.00
2022-09-26T05:08:17.234Z,4.60
2022-09-26T05:10:44.100Z,5.07
2022-09-26T05:13:10.811Z,4.85
2022-09-26T05:15:39.747Z,5.30
2022-09-26T05:18:08.385Z,5.15
2022-09-26T05:20:35.400Z,5.50
2022-09-26T05:23:02.430Z,5.05
2022-09-26T05:25:53.668Z,4.82
2022-09-26T05:28:20.197Z,5.47
2022-09-26T05:30:46.645Z,5.75
2022-09-26T05:33:13.345Z,5.60
2022-09-26T05:35:40.312Z,5.53
2022-09-26T05:38:06.948Z,5.68
2022-09-26T05:40:52.081Z,5.53
2022-09-26T05:43:18.562Z,6.10
2022-09-26T05:45:50.742Z,5.57
2022-09-26T05:48:17.830Z,5.93
2022-09-26T05:50:44.747Z,5.60
2022-09-26T05:53:11.196Z,5.70
2022-09-26T05:55:37.939Z,6.57
2022-09-26T05:58:06.025Z,6.32
2022-09-26T06:00:32.438Z,5.80
2022-09-26T06:03:02.801Z,6.10
2022-09-26T06:05:31.485Z,6.53
2022-09-26T06:08:00.023Z,6.47
2022-09-26T06:10:26.407Z,6.43
2022-09-26T06:12:52.859Z,6.45
2022-09-26T06:15:19.576Z,6.35
2022-09-26T06:17:48.127Z,6.05
2022-09-26T06:20:14.627Z,5.97
2022-09-26T06:22:42.351Z,7.22
2022-09-26T06:25:10.273Z,6.50
2022-09-26T06:27:38.749Z,6.40
2022-09-26T06:30:10.510Z,6.53
2022-09-26T06:32:39.150Z,6.30
2022-09-26T06:35:08.744Z,6.65
2022-09-26T06:37:35.144Z,6.63
2022-09-26T06:40:01.886Z,6.55
2022-09-26T06:42:28.327Z,6.90
2022-09-26T06:44:55.864Z,7.10
2022-09-26T06:47:23.295Z,6.00
2022-09-26T06:49:50.440Z,6.45
2022-09-26T06:52:16.934Z,7.40
2022-09-26T06:54:43.370Z,6.10
2022-09-26T06:57:15.053Z,6.40
2022-09-26T06:59:41.977Z,7.03
2022-09-26T07:02:09.010Z,6.93
2022-09-26T07:04:35.762Z,6.50
2022-09-26T07:07:02.450Z,6.00
2022-09-26T07:09:28.940Z,6.10
2022-09-26T07:14:42.550Z,6.47
2022-09-26T07:17:15.414Z,6.25
2022-09-26T07:19:42.476Z,6.20
2022-09-26T07:22:09.486Z,5.50
2022-09-26T07:24:36.244Z,5.60
2022-09-26T07:27:03.038Z,5.82
2022-09-26T07:29:29.673Z,5.55
2022-09-26T07:31:56.177Z,5.95
2022-09-26T07:34:27.025Z,5.40
2022-09-26T07:36:54.102Z,5.53
2022-09-26T07:39:20.520Z,4.93
2022-09-26T07:41:49.713Z,5.03
2022-09-26T07:47:22.560Z,5.30
2022-09-26T07:50:07.435Z,4.78
2022-09-26T07:52:34.025Z,4.97
2022-09-26T07:55:00.505Z,4.72
2022-09-26T07:57:26.868Z,4.60
2022-09-26T07:59:54.190Z,5.15
2022-09-26T08:02:25.756Z,4.22
2022-09-26T08:04:57.635Z,4.70
2022-09-26T08:07:26.717Z,3.90
2022-09-26T08:09:54.043Z,4.32
2022-09-26T08:12:20.632Z,3.60
2022-09-26T08:14:49.119Z,3.67
2022-09-26T08:17:17.186Z,2.90
2022-09-26T08:19:43.921Z,3.60
2022-09-26T08:22:11.224Z,3.70
2022-09-26T08:24:38.931Z,4.15
2022-09-26T08:27:05.442Z,3.65
2022-09-26T08:29:32.245Z,3.67
2022-09-26T08:32:00.944Z,3.88
2022-09-26T08:34:27.706Z,3.15
2022-09-26T08:36:54.727Z,3.40
2022-09-26T08:39:21.912Z,3.50
2022-09-26T08:42:11.438Z,3.95
2022-09-26T08:45:42.097Z,3.33
2022-09-26T08:48:26.985Z,3.20
2022-09-26T08:51:12.002Z,3.40
2022-09-26T08:54:13.194Z,3.47
2022-09-26T08:56:45.768Z,3.45
2022-09-26T08:59:23.493Z,2.88
2022-09-26T09:01:52.457Z,3.47
2022-09-26T09:04:44.019Z,3.33
2022-09-26T09:07:22.214Z,3.30
2022-09-26T09:09:49.987Z,3.05
2022-09-26T09:12:40.546Z,3.10
2022-09-26T09:15:34.674Z,2.92
2022-09-26T09:18:32.802Z,2.70
2022-09-26T09:21:26.676Z,3.00
2022-09-26T09:23:59.034Z,2.65
2022-09-26T09:29:35.896Z,2.95
2022-09-26T09:32:04.544Z,2.60
2022-09-26T09:34:44.557Z,2.00
2022-09-26T09:37:16.135Z,1.63
2022-09-26T09:39:45.390Z,1.27
2022-09-26T09:42:25.441Z,1.50
2022-09-26T09:45:25.164Z,1.38
2022-09-26T09:47:51.800Z,1.40
2022-09-26T09:50:56.922Z,1.50
2022-09-26T09:54:05.485Z,1.83
2022-09-26T09:56:51.980Z,1.33
2022-09-26T09:59:53.904Z,1.65
2022-09-26T10:02:46.462Z,1.55
2022-09-26T10:05:43.039Z,1.20
2022-09-26T10:08:18.313Z,1.48
2022-09-26T10:11:11.075Z,1.40
2022-09-26T10:13:39.728Z,1.27
2022-09-26T10:16:07.872Z,1.60
2022-09-26T10:19:03.899Z,1.52
2022-09-26T10:24:04.740Z,1.60
2022-09-26T10:26:39.339Z,2.50
2022-09-26T10:29:25.038Z,1.70
2022-09-26T10:31:57.136Z,1.60
2022-09-26T10:34:27.966Z,1.70
2022-09-26T10:36:55.977Z,2.00
2022-09-26T10:39:48.586Z,1.40
2022-09-26T10:42:20.385Z,1.90
2022-09-26T10:44:50.726Z,1.98
2022-09-26T10:47:22.195Z,2.20
2022-09-26T10:49:51.330Z,2.25
2022-09-26T10:52:35.984Z,2.05
2022-09-26T10:55:07.829Z,2.28
2022-09-26T10:57:50.360Z,2.15
2022-09-26T11:00:43.120Z,2.63
2022-09-26T11:03:13.866Z,2.70
2022-09-26T11:05:59.201Z,2.30
2022-09-26T11:08:30.379Z,2.30
2022-09-26T11:11:00.669Z,2.40
2022-09-26T11:13:32.263Z,2.53
2022-09-26T11:16:10.725Z,2.30
2022-09-26T11:18:59.382Z,2.85
2022-09-26T11:21:55.945Z,2.30
2022-09-26T11:24:54.806Z,3.22
2022-09-26T11:27:24.589Z,2.65
2022-09-26T11:30:02.013Z,3.15
2022-09-26T11:32:32.159Z,3.17
2022-09-26T11:35:03.399Z,3.00
2022-09-26T11:37:50.865Z,3.00
2022-09-26T11:40:38.858Z,3.00
2022-09-26T11:43:45.217Z,2.85
2022-09-26T11:46:21.152Z,3.25
2022-09-26T11:49:00.988Z,3.03
2022-09-26T11:51:40.203Z,2.95
2022-09-26T11:54:45.651Z,3.25
2022-09-26T11:57:27.308Z,3.70
2022-09-26T12:00:26.566Z,3.17
2022-09-26T12:03:26.069Z,3.28
2022-09-26T12:06:08.885Z,2.80
2022-09-26T12:09:14.577Z,3.30
2022-09-26T12:12:09.595Z,3.20
2022-09-26T12:14:58.105Z,3.25
2022-09-26T12:17:40.974Z,3.28
2022-09-26T12:20:24.998Z,2.78
2022-09-26T12:23:07.330Z,2.60
2022-09-26T12:26:05.054Z,2.63
2022-09-26T12:28:56.517Z,2.88
2022-09-26T12:31:32.594Z,2.67
2022-09-26T12:34:28.310Z,2.08
2022-09-26T12:37:14.213Z,2.00
2022-09-26T12:39:57.288Z,1.98
2022-09-26T12:42:55.797Z,2.13
2022-09-26T12:45:57.650Z,2.15
2022-09-26T12:48:39.404Z,1.60
2022-09-26T12:51:43.190Z,1.75
2022-09-26T12:54:38.634Z,1.65
2022-09-26T12:57:24.259Z,2.08
2022-09-26T13:00:03.701Z,1.70
2022-09-26T13:02:42.347Z,1.80
2022-09-26T13:05:50.735Z,1.42
2022-09-26T13:08:41.570Z,1.58
2022-09-26T13:11:45.785Z,1.55
2022-09-26T13:14:18.403Z,1.92
2022-09-26T13:17:10.229Z,1.42
2022-09-26T13:19:48.140Z,1.45
2022-09-26T13:22:27.615Z,1.33
2022-09-26T13:24:56.898Z,1.63
2022-09-26T13:27:36.061Z,1.50
2022-09-26T13:30:08.102Z,1.90
2022-09-26T13:32:50.006Z,1.52
2022-09-26T13:35:23.258Z,1.48
2022-09-26T13:38:08.354Z,1.40
2022-09-26T13:40:39.281Z,1.60
2022-09-26T13:43:14.842Z,1.58
2022-09-26T13:45:58.493Z,1.45
2022-09-26T13:49:00.899Z,1.80
2022-09-26T13:51:52.469Z,1.38
2022-09-26T13:54:27.466Z,1.35
2022-09-26T13:56:54.427Z,1.42
2022-09-26T13:59:32.229Z,1.58
2022-09-26T14:02:18.068Z,1.40
2022-09-26T14:04:50.064Z,1.63
2022-09-26T14:07:42.490Z,1.55
2022-09-26T14:10:19.180Z,1.60
2022-09-26T14:13:05.852Z,1.63
2022-09-26T14:15:48.959Z,1.73
2022-09-26T14:18:43.509Z,1.50
2022-09-26T14:21:10.587Z,1.92
2022-09-26T14:23:40.623Z,3.28
2022-09-26T14:26:19.366Z,3.20
2022-09-26T14:28:52.915Z,1.90
2022-09-26T14:31:25.214Z,4.43
2022-09-26T14:34:10.658Z,7.30
2022-09-26T14:36:37.569Z,11.05
2022-09-26T14:39:05.727Z,5.85
2022-09-26T14:41:34.748Z,2.55
2022-09-26T14:44:04.677Z,3.17
2022-09-26T14:46:35.512Z,2.08
2022-09-26T14:49:06.493Z,2.20
2022-09-26T14:51:37.074Z,1.90
2022-09-26T14:54:08.845Z,2.85
2022-09-26T14:56:43.145Z,2.10
2022-09-26T14:59:24.995Z,2.10
2022-09-26T15:01:53.220Z,2.50
2022-09-26T15:04:25.861Z,1.92
2022-09-26T15:07:02.970Z,2.10
2022-09-26T15:09:52.120Z,1.70
2022-09-26T15:12:26.794Z,1.70
2022-09-26T15:15:04.960Z,1.83
2022-09-26T15:17:39.673Z,1.85
2022-09-26T15:20:13.730Z,1.77
2022-09-26T15:22:42.504Z,2.50
2022-09-26T15:25:19.246Z,1.67
2022-09-26T15:27:49.276Z,1.83
2022-09-26T15:30:24.215Z,1.90
2022-09-26T15:32:57.092Z,3.22
2022-09-26T15:35:24.225Z,2.90
2022-09-26T15:37:50.691Z,1.98
2022-09-26T15:40:23.152Z,3.60
2022-09-26T15:43:01.482Z,2.65
2022-09-26T15:45:33.780Z,2.83
2022-09-26T15:48:18.908Z,1.90
2022-09-26T15:51:26.345Z,2.00
2022-09-26T15:53:57.870Z,2.25
2022-09-26T15:56:42.595Z,2.65
2022-09-26T15:59:29.208Z,2.20
2022-09-26T16:01:56.480Z,1.77
2022-09-26T16:04:27.151Z,2.17
2022-09-26T16:07:05.315Z,1.98
2022-09-26T16:09:32.382Z,2.15
2022-09-26T16:12:02.558Z,2.22
2022-09-26T16:14:46.767Z,1.75
2022-09-26T16:17:32.954Z,2.10
2022-09-26T16:20:23.608Z,2.20
2022-09-26T16:23:04.765Z,1.92
2022-09-26T16:25:52.780Z,1.77
2022-09-26T16:28:42.425Z,3.65
2022-09-26T16:31:17.893Z,1.65
2022-09-26T16:33:50.882Z,2.28
2022-09-26T16:36:26.663Z,2.10
2022-09-26T16:38:56.571Z,2.20
2022-09-26T16:41:56.122Z,1.67
2022-09-26T16:44:28.743Z,2.30
2022-09-26T16:47:05.429Z,1.67
2022-09-26T16:49:47.320Z,1.85
2022-09-26T16:52:32.736Z,2.05
2022-09-26T16:55:01.680Z,2.00
2022-09-26T16:57:38.956Z,2.10
2022-09-26T17:00:35.636Z,1.83
2022-09-26T17:03:03.142Z,1.92
2022-09-26T17:05:29.956Z,2.15
2022-09-26T17:07:56.439Z,1.75
2022-09-26T17:10:25.178Z,2.20
2022-09-26T17:12:52.928Z,2.58
2022-09-26T17:15:28.220Z,2.20
2022-09-26T17:17:56.929Z,2.22
2022-09-26T17:20:24.139Z,2.13
2022-09-26T17:22:51.110Z,1.80
2022-09-26T17:25:18.699Z,2.28
2022-09-26T17:27:50.297Z,1.85
2022-09-26T17:30:19.040Z,4.75
2022-09-26T17:32:49.743Z,4.90
2022-09-26T17:35:22.164Z,2.22
2022-09-26T17:37:48.726Z,2.45
2022-09-26T17:40:27.250Z,2.60
2022-09-26T17:42:56.533Z,2.50
2022-09-26T17:45:32.045Z,2.92
2022-09-26T17:48:02.035Z,2.25
2022-09-26T17:50:31.274Z,2.00
2022-09-26T17:53:01.003Z,2.20
2022-09-26T17:55:31.291Z,2.63
2022-09-26T17:57:58.343Z,2.28
2022-09-26T18:00:25.531Z,2.88
2022-09-26T18:02:57.220Z,3.50
2022-09-26T18:05:27.753Z,2.58
2022-09-26T18:08:16.662Z,4.45
2022-09-26T18:10:51.668Z,4.38
2022-09-26T18:13:22.604Z,3.00
2022-09-26T18:15:49.665Z,8.30
2022-09-26T18:18:18.530Z,4.32
2022-09-26T18:20:48.804Z,3.03
2022-09-26T18:23:27.038Z,4.05
2022-09-26T18:25:55.855Z,2.38
2022-09-26T18:28:23.605Z,2.03
2022-09-26T18:30:57.841Z,2.40
2022-09-26T18:33:27.689Z,2.60
2022-09-26T18:35:54.774Z,3.67
2022-09-26T18:38:22.173Z,2.50
2022-09-26T18:40:58.565Z,3.13
2022-09-26T18:43:29.340Z,3.90
2022-09-26T18:45:57.515Z,2.67
2022-09-26T18:48:32.825Z,3.35
2022-09-26T18:53:30.287Z,2.10
2022-09-26T18:56:15.373Z,3.33
2022-09-26T18:58:41.843Z,3.22
2022-09-26T19:01:23.165Z,4.35
2022-09-26T19:03:49.915Z,4.15
2022-09-26T19:06:23.104Z,4.20
2022-09-26T19:09:01.734Z,4.00
2022-09-26T19:11:31.796Z,3.70
2022-09-26T19:14:02.615Z,2.35
2022-09-26T19:16:29.033Z,1.85
2022-09-26T19:18:55.525Z,2.28
2022-09-26T19:21:39.301Z,2.00
2022-09-26T19:24:20.660Z,2.55
2022-09-26T19:26:54.247Z,2.38
2022-09-26T19:29:36.738Z,2.33
2022-09-26T19:32:05.876Z,2.40
2022-09-26T19:34:33.170Z,2.50
2022-09-26T19:37:02.234Z,2.47
2022-09-26T19:39:28.845Z,2.88
2022-09-26T19:41:55.383Z,2.15
2022-09-26T19:44:22.919Z,2.10
2022-09-26T19:46:49.328Z,1.90
2022-09-26T19:49:19.773Z,2.33
2022-09-26T19:51:49.458Z,2.42
2022-09-26T19:54:18.500Z,2.17
2022-09-26T19:56:46.509Z,2.10
2022-09-26T19:59:17.349Z,2.00
2022-09-26T20:01:46.426Z,2.08
2022-09-26T20:04:16.052Z,2.47
2022-09-26T20:06:43.175Z,1.90
2022-09-26T20:09:15.919Z,2.08
2022-09-26T20:11:42.981Z,2.10
2022-09-26T20:14:24.981Z,2.25
2022-09-26T20:16:58.454Z,2.15
2022-09-26T20:19:31.198Z,1.63
2022-09-26T20:22:01.731Z,1.55
2022-09-26T20:24:30.922Z,1.80
2022-09-26T20:27:00.250Z,1.75
2022-09-26T20:29:26.995Z,2.30
2022-09-26T20:31:53.968Z,1.70
2022-09-26T20:34:20.528Z,1.33
2022-09-26T20:36:51.573Z,1.77
2022-09-26T20:39:26.212Z,1.23
2022-09-26T20:41:53.092Z,1.20
2022-09-26T20:44:27.893Z,1.60
2022-09-26T20:46:58.368Z,1.30
2022-09-26T20:49:37.691Z,1.00
2022-09-26T20:52:08.678Z,1.40
2022-09-26T20:54:35.409Z,1.50
2022-09-26T20:57:01.961Z,1.30
2022-09-26T20:59:29.126Z,1.15
2022-09-26T21:01:57.538Z,0.90
2022-09-26T21:04:32.375Z,1.10
2022-09-26T21:06:58.781Z,0.98
2022-09-26T21:09:25.375Z,0.80
2022-09-26T21:11:51.792Z,1.30
2022-09-26T21:14:18.948Z,0.98
2022-09-26T21:16:48.268Z,1.10
2022-09-26T21:19:20.872Z,1.10
2022-09-26T21:21:47.432Z,1.15
2022-09-26T21:24:22.736Z,1.13
2022-09-26T21:26:51.340Z,1.00
2022-09-26T21:29:18.303Z,1.30
2022-09-26T21:31:53.515Z,1.02
2022-09-26T21:34:26.591Z,1.15
2022-09-26T21:36:56.160Z,1.00
2022-09-26T21:39:24.994Z,0.93
2022-09-26T21:41:55.740Z,1.30
2022-09-26T21:44:28.171Z,1.02
2022-09-26T21:46:54.572Z,1.33
2022-09-26T21:49:24.376Z,1.20
2022-09-26T21:51:55.947Z,1.20
2022-09-26T21:54:29.221Z,1.20
2022-09-26T21:57:02.338Z,1.10
2022-09-26T21:59:30.082Z,1.35
2022-09-26T22:01:56.622Z,1.00
2022-09-26T22:04:23.813Z,0.90
2022-09-26T22:06:50.276Z,1.45
2022-09-26T22:09:16.809Z,1.35
2022-09-26T22:11:43.376Z,1.42
2022-09-26T22:14:10.135Z,1.50
2022-09-26T22:16:36.654Z,1.30
2022-09-26T22:19:05.030Z,1.23
2022-09-26T22:21:31.725Z,1.35
2022-09-26T22:23:58.187Z,1.35
2022-09-26T22:26:24.766Z,1.30
2022-09-26T22:28:51.211Z,1.27
2022-09-26T22:31:18.390Z,1.10
2022-09-26T22:33:45.054Z,1.48
2022-09-26T22:36:12.095Z,1.30
2022-09-26T22:38:39.210Z,1.42
2022-09-26T22:41:06.779Z,1.40
2022-09-26T22:43:35.005Z,1.30
2022-09-26T22:46:09.841Z,1.48
2022-09-26T22:48:39.295Z,1.25
2022-09-26T22:51:06.711Z,1.58
2022-09-26T22:53:36.306Z,1.70
2022-09-26T22:56:05.012Z,1.42
2022-09-26T22:58:36.517Z,1.90
2022-09-26T23:01:04.705Z,1.60
2022-09-26T23:03:32.915Z,1.90
2022-09-26T23:06:00.071Z,1.80
2022-09-26T23:08:27.464Z,2.08
2022-09-26T23:10:56.512Z,1.88
2022-09-26T23:13:25.453Z,1.90
2022-09-26T23:15:52.257Z,1.90
2022-09-26T23:18:19.147Z,2.08
2022-09-26T23:20:45.830Z,2.08
2022-09-26T23:23:14.241Z,2.78
2022-09-26T23:25:50.370Z,2.30
2022-09-26T23:28:17.863Z,2.63
2022-09-26T23:30:44.447Z,2.63
2022-09-26T23:33:11.171Z,3.00
2022-09-26T23:35:37.764Z,2.28
2022-09-26T23:38:05.436Z,3.03
2022-09-26T23:40:32.573Z,3.13
2022-09-26T23:42:59.093Z,3.25
2022-09-26T23:45:27.013Z,2.97
2022-09-26T23:47:53.891Z,2.55
2022-09-26T23:50:20.734Z,3.00
2022-09-26T23:52:47.459Z,2.92
2022-09-26T23:55:13.969Z,3.17
2022-09-26T23:57:40.748Z,2.85
